Time;durP1;ratioP1;P1;durP2;ratioP2;P2;SDS_P1;SDS_P2;PMS_P1;PMS_P2;Temp;Humidity;BMP_temperature;BMP_pressure;BME280_temperature;BME280_humidity;BME280_pressure;Samples;Min_cycle;Max_cycle;Signal;HPM_P1;HPM_P2
2021/06/04 00:02:30;;;;;;;11.80;5.30;;;;;;;15.44;64.18;99519.94;1870584;76;22148;-62
2021/06/04 00:05:08;;;;;;;10.65;4.53;;;;;;;15.43;64.36;99520.81;1854569;76;38637;-62
2021/06/04 00:07:43;;;;;;;8.95;4.45;;;;;;;15.45;64.23;99521.25;1889967;76;22144;-62
2021/06/04 00:10:23;;;;;;;7.95;4.12;;;;;;;15.45;63.98;99521.25;1870634;76;22141;-63
2021/06/04 00:13:23;;;;;;;8.55;5.42;;;;;;;15.39;64.02;99527.32;1827764;78;21099;-62
2021/06/04 00:16:07;;;;;;;7.67;4.47;;;;;;;15.43;64.03;99523.41;1834999;77;22159;-61
2021/06/04 00:18:43;;;;;;;13.68;4.65;;;;;;;15.40;63.92;99520.37;1870628;76;22160;-61
2021/06/04 00:21:27;;;;;;;12.33;5.03;;;;;;;15.35;63.65;99517.77;1870453;76;22113;-61
2021/06/04 00:24:05;;;;;;;7.17;4.35;;;;;;;15.37;63.45;99514.74;1870527;76;22141;-60
2021/06/04 00:26:53;;;;;;;8.18;4.40;;;;;;;15.32;63.70;99519.08;1827786;77;21265;-61
2021/06/04 00:29:27;;;;;;;7.37;4.20;;;;;;;15.35;63.67;99516.47;1889920;76;22120;-62
2021/06/04 00:32:06;;;;;;;8.98;4.83;;;;;;;15.36;63.21;99518.19;1889983;76;22120;-62
2021/06/04 00:34:45;;;;;;;9.15;4.80;;;;;;;15.36;63.70;99514.29;1870006;76;22136;-62
2021/06/04 00:37:21;;;;;;;9.40;4.60;;;;;;;15.36;64.01;99509.53;1870456;76;22176;-62
2021/06/04 00:40:13;;;;;;;7.42;4.00;;;;;;;15.30;64.26;99515.59;1827680;78;21154;-61
2021/06/04 00:42:49;;;;;;;10.13;4.75;;;;;;;15.35;64.15;99515.17;1870579;76;22583;-61
2021/06/04 00:45:30;;;;;;;9.08;4.78;;;;;;;15.36;63.83;99514.29;1854828;76;27900;-62
2021/06/04 00:48:06;;;;;;;9.10;4.83;;;;;;;15.41;64.39;99517.76;1870649;76;22101;-62
2021/06/04 00:51:15;;;;;;;8.43;4.92;;;;;;;15.33;64.95;99510.83;1827722;77;21138;-61
2021/06/04 00:53:53;;;;;;;11.12;5.17;;;;;;;15.30;65.46;99514.30;1870450;76;22160;-60
2021/06/04 00:56:30;;;;;;;10.43;4.85;;;;;;;15.25;65.82;99516.03;1870457;76;22192;-62
2021/06/04 00:59:09;;;;;;;7.80;4.55;;;;;;;15.20;66.35;99515.16;1870575;76;20093;-61
2021/06/04 01:01:43;;;;;;;8.38;5.05;;;;;;;15.16;66.86;99513.41;1870636;76;22145;-62
2021/06/04 01:04:23;;;;;;;10.98;4.97;;;;;;;15.12;66.97;99512.98;1870640;76;22569;-60
2021/06/04 01:07:18;;;;;;;7.85;4.92;;;;;;;15.07;66.86;99507.77;1869784;76;22158;-62
2021/06/04 01:10:34;;;;;;;9.40;6.25;;;;;;;15.04;66.86;99513.41;1889869;76;22579;-61
2021/06/04 01:13:24;;;;;;;11.35;5.65;;;;;;;15.00;67.11;99512.96;1854740;76;28339;-60
2021/06/04 01:16:29;;;;;;;8.65;5.87;;;;;;;15.02;66.95;99508.64;1889887;76;22171;-64
2021/06/04 01:19:29;;;;;;;10.93;5.55;;;;;;;14.96;66.93;99510.36;1870805;76;22528;-60
2021/06/04 01:22:09;;;;;;;10.20;4.72;;;;;;;14.93;67.10;99518.16;1870579;76;22136;-61
2021/06/04 01:25:08;;;;;;;7.83;5.40;;;;;;;14.90;67.34;99514.23;1870381;76;22555;-61
2021/06/04 01:27:48;;;;;;;7.87;5.03;;;;;;;14.87;67.54;99514.23;1870557;76;22109;-61
2021/06/04 01:30:41;;;;;;;9.75;5.45;;;;;;;14.80;67.59;99521.56;1827609;78;21134;-63
2021/06/04 01:33:21;;;;;;;10.90;5.90;;;;;;;14.84;67.88;99520.72;1889894;76;22195;-63
2021/06/04 01:36:00;;;;;;;9.30;5.33;;;;;;;14.82;68.29;99513.34;1870612;76;22113;-62
2021/06/04 01:38:40;;;;;;;8.40;5.50;;;;;;;14.83;68.12;99515.07;1870596;76;22147;-62
2021/06/04 01:41:18;;;;;;;8.88;5.47;;;;;;;14.80;68.03;99515.07;1870624;76;22109;-62
2021/06/04 01:44:12;;;;;;;8.90;5.42;;;;;;;14.70;67.97;99518.50;1827702;78;21142;-62
2021/06/04 01:46:54;;;;;;;8.63;4.60;;;;;;;14.71;68.05;99521.13;1870617;76;22220;-62
2021/06/04 01:49:34;;;;;;;9.80;5.37;;;;;;;14.68;68.21;99525.02;1870572;76;22608;-63
2021/06/04 01:52:17;;;;;;;8.53;5.15;;;;;;;14.66;68.27;99521.98;1870659;76;22535;-62
2021/06/04 01:55:10;;;;;;;9.20;5.40;;;;;;;14.63;68.25;99525.84;1870631;76;22181;-63
2021/06/04 01:58:06;;;;;;;9.08;5.35;;;;;;;14.56;68.45;99528.00;1737514;81;21161;-62
2021/06/04 02:00:50;;;;;;;12.07;5.42;;;;;;;14.58;68.71;99519.75;1870404;76;22203;-64
2021/06/04 02:03:25;;;;;;;9.75;5.80;;;;;;;14.57;68.75;99520.20;1870583;76;22161;-64
2021/06/04 02:06:00;;;;;;;7.90;5.30;;;;;;;14.56;68.69;99525.41;1890038;76;22213;-62
2021/06/04 02:08:43;;;;;;;10.48;6.35;;;;;;;14.57;68.71;99521.49;1889908;76;22120;-62
2021/06/04 02:11:38;;;;;;;9.75;5.40;;;;;;;14.54;68.70;99527.98;1791284;80;21123;-62
2021/06/04 02:14:18;;;;;;;13.22;6.25;;;;;;;14.65;68.89;99529.31;1870656;76;22140;-63
2021/06/04 02:17:36;;;;;;;8.83;5.90;;;;;;;14.68;69.03;99525.42;1868589;76;22184;-61
2021/06/04 02:20:29;;;;;;;9.63;5.78;;;;;;;14.68;68.73;99530.62;1870587;76;22135;-62
2021/06/04 02:23:18;;;;;;;9.88;5.95;;;;;;;14.68;68.83;99525.42;1870583;76;22128;-60
2021/06/04 02:26:07;;;;;;;10.75;5.70;;;;;;;14.65;68.79;99525.41;1870613;76;22124;-62
2021/06/04 02:29:09;;;;;;;9.70;5.87;;;;;;;14.64;69.02;99528.89;1870650;76;22555;-61
2021/06/04 02:31:53;;;;;;;11.33;6.35;;;;;;;14.62;68.91;99528.02;1889944;76;22550;-60
2021/06/04 02:34:42;;;;;;;8.45;6.35;;;;;;;14.60;69.11;99529.73;1870646;76;22552;-61
2021/06/04 02:37:31;;;;;;;9.10;5.83;;;;;;;14.59;69.19;99537.09;1890038;76;22104;-60
2021/06/04 02:40:14;;;;;;;8.60;6.17;;;;;;;14.58;69.38;99539.23;1889909;76;22570;-61
2021/06/04 02:42:55;;;;;;;8.00;5.83;;;;;;;14.57;69.47;99533.18;1870393;76;22201;-62
2021/06/04 02:45:38;;;;;;;7.72;5.80;;;;;;;14.58;69.54;99537.53;1870638;76;22153;-62
2021/06/04 02:48:18;;;;;;;10.10;6.37;;;;;;;14.56;69.58;99534.05;1889931;76;22144;-62
2021/06/04 02:51:07;;;;;;;9.55;5.47;;;;;;;14.57;69.62;99536.22;1870638;76;22145;-62
2021/06/04 02:53:56;;;;;;;16.45;6.45;;;;;;;14.60;69.68;99534.92;1889920;76;22555;-62
2021/06/04 02:56:37;;;;;;;9.70;6.70;;;;;;;14.63;69.70;99531.03;1870613;76;22160;-61
2021/06/04 02:59:23;;;;;;;9.85;6.92;;;;;;;14.67;69.36;99528.89;1889926;76;22128;-62
2021/06/04 03:02:21;;;;;;;10.03;6.30;;;;;;;14.63;69.18;99535.82;1861319;77;21525;-65
2021/06/04 03:05:08;;;;;;;9.33;5.62;;;;;;;14.70;69.01;99542.75;1870455;76;22190;-62
2021/06/04 03:07:44;;;;;;;10.30;5.92;;;;;;;14.69;69.04;99537.56;1870556;76;22136;-63
2021/06/04 03:10:27;;;;;;;11.05;6.15;;;;;;;14.69;69.05;99539.73;1870665;76;22113;-62
2021/06/04 03:13:06;;;;;;;12.88;6.28;;;;;;;14.73;69.15;99536.70;1870694;76;22149;-62
2021/06/04 03:15:47;;;;;;;8.25;5.78;;;;;;;14.76;69.27;99534.13;1870564;76;22149;-62
2021/06/04 03:18:41;;;;;;;17.82;6.03;;;;;;;14.73;69.05;99534.09;1827603;77;21087;-62
2021/06/04 03:21:29;;;;;;;9.48;7.03;;;;;;;14.78;68.86;99538.88;1870749;76;22149;-62
2021/06/04 03:24:10;;;;;;;14.23;6.00;;;;;;;14.75;68.71;99531.94;1870684;76;22136;-61
2021/06/04 03:26:46;;;;;;;14.43;6.20;;;;;;;14.75;68.68;99529.78;1870636;76;22575;-62
2021/06/04 03:29:22;;;;;;;13.80;6.33;;;;;;;14.75;68.61;99537.58;1870664;76;22120;-62
2021/06/04 03:32:02;;;;;;;8.18;5.85;;;;;;;14.77;68.59;99535.86;1870650;76;22116;-62
2021/06/04 03:34:39;;;;;;;8.58;5.33;;;;;;;14.77;68.69;99539.75;1870787;76;22144;-62
2021/06/04 03:37:17;;;;;;;11.95;5.58;;;;;;;14.76;68.73;99540.62;1889925;76;22140;-63
2021/06/04 03:40:15;;;;;;;8.08;5.45;;;;;;;14.78;68.90;99541.47;1885189;75;20235;-64
2021/06/04 03:42:50;;;;;;;8.48;5.45;;;;;;;14.76;68.90;99545.83;1870630;76;22580;-62
2021/06/04 03:45:30;;;;;;;11.38;5.53;;;;;;;14.76;68.91;99538.89;1890037;76;22141;-62
2021/06/04 03:48:08;;;;;;;9.05;5.80;;;;;;;14.78;68.91;99540.17;1870654;76;22553;-63
2021/06/04 03:50:46;;;;;;;12.98;5.62;;;;;;;14.82;69.01;99534.58;1870697;76;22185;-62
2021/06/04 03:53:32;;;;;;;10.03;5.40;;;;;;;14.79;69.11;99528.08;1827487;78;21347;-61
2021/06/04 03:56:15;;;;;;;11.28;5.92;;;;;;;14.90;69.29;99528.96;1869784;76;22616;-63
2021/06/04 03:58:54;;;;;;;10.50;5.83;;;;;;;14.95;69.27;99530.70;1870465;76;22620;-64
2021/06/04 04:01:32;;;;;;;14.20;6.37;;;;;;;14.98;69.41;99525.53;1873849;76;28318;-65
2021/06/04 04:04:08;;;;;;;8.70;5.70;;;;;;;15.07;69.46;99539.41;1870635;76;22102;-63
2021/06/04 04:06:44;;;;;;;9.33;5.85;;;;;;;15.09;69.53;99530.75;1870446;76;22197;-66
2021/06/04 04:09:20;;;;;;;9.28;6.08;;;;;;;15.13;69.65;99531.17;1870612;76;22164;-64
2021/06/04 04:11:55;;;;;;;9.80;6.28;;;;;;;15.18;69.50;99528.14;1854730;76;28315;-64
2021/06/04 04:14:30;;;;;;;8.63;5.95;;;;;;;15.26;69.58;99524.69;1889932;76;20097;-65
2021/06/04 04:17:07;;;;;;;11.30;5.67;;;;;;;15.27;69.48;99525.14;1889888;76;22148;-63
2021/06/04 04:19:41;;;;;;;9.53;6.00;;;;;;;15.30;69.20;99524.70;1889965;76;22128;-62
2021/06/04 04:22:17;;;;;;;9.70;5.58;;;;;;;15.35;69.13;99533.38;1870618;76;22564;-63
2021/06/04 04:25:06;;;;;;;13.45;5.47;;;;;;;15.37;69.13;99538.15;1827645;78;21123;-63
2021/06/04 04:27:41;;;;;;;15.63;5.58;;;;;;;15.52;68.96;99542.91;1889897;76;22112;-63
2021/06/04 04:30:18;;;;;;;8.48;5.53;;;;;;;15.59;68.85;99543.34;1889861;76;22522;-63
2021/06/04 04:32:53;;;;;;;12.00;6.58;;;;;;;15.69;68.70;99549.02;1870546;76;22555;-65
2021/06/04 04:35:39;;;;;;;8.03;5.33;;;;;;;15.70;68.79;99549.47;1760304;81;21152;-63
2021/06/04 04:38:17;;;;;;;10.03;5.92;;;;;;;15.79;68.98;99541.63;1870566;76;22121;-65
2021/06/04 04:41:10;;;;;;;8.53;5.50;;;;;;;15.87;68.93;99536.86;1860140;75;27958;-63
2021/06/04 04:43:50;;;;;;;8.43;5.80;;;;;;;16.01;68.74;99539.02;1870452;76;20105;-63
2021/06/04 04:46:29;;;;;;;7.80;5.20;;;;;;;16.16;68.45;99540.73;1870544;76;22536;-65
2021/06/04 04:49:04;;;;;;;12.20;5.37;;;;;;;16.30;68.17;99540.67;1870521;76;22141;-63
2021/06/04 04:51:39;;;;;;;8.73;5.25;;;;;;;16.46;67.86;99544.95;1870585;76;22191;-63
2021/06/04 04:54:16;;;;;;;9.55;4.87;;;;;;;16.66;67.55;99544.47;1881506;76;22179;-63
2021/06/04 04:57:05;;;;;;;11.38;5.53;;;;;;;16.82;67.15;99541.81;1836868;77;21183;-64
2021/06/04 04:59:41;;;;;;;10.65;5.95;;;;;;;17.06;66.44;99545.57;1861732;76;22309;-63
2021/06/04 05:02:16;;;;;;;11.45;5.80;;;;;;;17.23;65.76;99553.75;1873744;76;28370;-63
2021/06/04 05:04:52;;;;;;;11.53;5.60;;;;;;;17.49;65.25;99551.80;1870362;76;22172;-64
2021/06/04 05:07:38;;;;;;;7.55;4.92;;;;;;;17.72;64.55;99557.28;1827393;78;21102;-65
2021/06/04 05:10:14;;;;;;;10.55;5.03;;;;;;;18.05;62.94;99555.27;1843559;76;27948;-63
2021/06/04 05:12:49;;;;;;;10.48;5.00;;;;;;;18.26;62.23;99551.12;1841646;76;28101;-63
2021/06/04 05:15:29;;;;;;;9.43;4.72;;;;;;;18.46;61.67;99557.88;1856680;76;22591;-65
2021/06/04 05:18:07;;;;;;;13.55;5.12;;;;;;;18.60;60.61;99555.98;1853066;76;22140;-65
2021/06/04 05:20:45;;;;;;;12.93;5.08;;;;;;;18.71;60.36;99559.77;1867437;76;22610;-63
2021/06/04 05:23:31;;;;;;;9.05;4.62;;;;;;;18.80;59.42;99554.02;1836672;77;21106;-64
2021/06/04 05:26:08;;;;;;;10.50;5.08;;;;;;;18.92;59.02;99553.41;1861794;76;22159;-63
2021/06/04 05:28:42;;;;;;;10.00;5.10;;;;;;;18.97;58.76;99559.45;1849543;76;28381;-65
2021/06/04 05:31:18;;;;;;;12.63;5.50;;;;;;;19.08;58.31;99556.23;1854656;76;27948;-64
2021/06/04 05:33:54;;;;;;;10.75;4.50;;;;;;;19.23;57.85;99556.03;1854675;76;27908;-63
2021/06/04 05:36:33;;;;;;;9.73;4.25;;;;;;;19.37;55.96;99557.13;1870310;76;22245;-65
2021/06/04 05:39:19;;;;;;;11.88;4.00;;;;;;;19.46;55.47;99554.80;1870629;76;22149;-63
2021/06/04 05:42:00;;;;;;;12.20;4.10;;;;;;;19.52;53.50;99552.95;1844309;76;22156;-63
2021/06/04 05:44:42;;;;;;;8.60;4.37;;;;;;;19.65;54.66;99556.69;1881288;75;22187;-65
2021/06/04 05:47:17;;;;;;;8.88;4.37;;;;;;;19.83;54.21;99555.55;1870442;76;22137;-65
2021/06/04 05:49:52;;;;;;;11.57;4.50;;;;;;;20.13;53.43;99562.86;1865880;76;22214;-65
2021/06/04 05:52:26;;;;;;;7.08;3.92;;;;;;;21.19;50.50;99563.34;1832417;76;22643;-64
2021/06/04 05:55:11;;;;;;;6.62;3.20;;;;;;;22.58;45.95;99572.56;1865771;76;22875;-65
2021/06/04 05:57:44;;;;;;;6.60;3.20;;;;;;;23.00;43.36;99568.31;1811698;77;22182;-64
2021/06/04 06:00:29;;;;;;;9.98;3.25;;;;;;;22.97;42.62;99573.64;1866795;76;20118;-63
2021/06/04 06:03:05;;;;;;;8.78;3.47;;;;;;;22.71;42.96;99575.70;1850691;76;22186;-65
2021/06/04 06:05:41;;;;;;;10.43;3.22;;;;;;;22.58;43.52;99571.70;1859871;76;22175;-65
2021/06/04 06:08:23;;;;;;;9.98;3.08;;;;;;;23.14;42.61;99577.95;1851471;76;22190;-64
2021/06/04 06:10:58;;;;;;;8.65;3.12;;;;;;;22.99;42.34;99573.16;1851006;76;22602;-66
2021/06/04 06:13:33;;;;;;;5.67;3.10;;;;;;;23.48;41.48;99578.66;1848718;76;22179;-65
2021/06/04 06:16:13;;;;;;;5.58;2.98;;;;;;;24.01;39.82;99574.28;1869677;76;22167;-64
2021/06/04 06:18:55;;;;;;;7.08;3.33;;;;;;;24.87;38.55;99585.73;1869720;76;22602;-64
2021/06/04 06:21:46;;;;;;;8.25;2.95;;;;;;;25.81;36.67;99587.82;1760641;80;21575;-65
2021/06/04 06:24:22;;;;;;;6.85;2.85;;;;;;;26.25;34.87;99585.09;1889828;76;22139;-66
2021/06/04 06:26:58;;;;;;;4.90;2.83;;;;;;;26.37;34.38;99589.37;1870393;76;22580;-64
2021/06/04 06:29:36;;;;;;;6.42;2.77;;;;;;;26.34;34.40;99587.34;1856403;76;28441;-65
2021/06/04 06:32:12;;;;;;;8.65;2.70;;;;;;;26.85;33.77;99593.91;1869355;76;22555;-69
2021/06/04 06:35:08;;;;;;;9.47;3.47;;;;;;;27.74;32.54;99588.36;1865040;75;27928;-67
2021/06/04 06:37:44;;;;;;;10.23;2.95;;;;;;;28.70;30.11;99593.20;1870540;76;22176;-65
2021/06/04 06:40:19;;;;;;;7.83;2.75;;;;;;;29.52;29.00;99596.22;1853999;76;27958;-63
2021/06/04 06:42:56;;;;;;;7.10;2.60;;;;;;;30.48;27.39;99599.02;1869062;76;22106;-69
2021/06/04 06:45:31;;;;;;;7.15;3.00;;;;;;;31.09;26.96;99601.48;1869120;76;22231;-72
2021/06/04 06:48:08;;;;;;;9.58;2.55;;;;;;;31.43;25.92;99600.22;1869123;76;22555;-74
2021/06/04 06:50:56;;;;;;;8.78;2.50;;;;;;;31.64;24.44;99598.42;1826910;78;21354;-73
2021/06/04 06:53:31;;;;;;;9.00;2.65;;;;;;;31.46;23.34;99600.48;1854820;76;27883;-71
2021/06/04 06:56:09;;;;;;;13.08;2.90;;;;;;;31.29;23.69;99603.73;1870596;76;22231;-70
2021/06/04 06:58:48;;;;;;;10.15;2.80;;;;;;;31.42;23.74;99604.30;1834541;77;22268;-68
2021/06/04 07:01:23;;;;;;;6.42;2.40;;;;;;;31.46;24.08;99600.48;1889970;76;22086;-66
2021/06/04 07:04:00;;;;;;;6.28;2.37;;;;;;;31.72;23.35;99600.95;1870593;76;22140;-73
2021/06/04 07:06:38;;;;;;;7.20;2.10;;;;;;;31.58;21.95;99605.03;1889855;76;22585;-71
2021/06/04 07:09:15;;;;;;;6.65;2.17;;;;;;;31.54;21.88;99603.50;1870769;76;22263;-74
2021/06/04 07:11:54;;;;;;;3.90;1.72;;;;;;;31.83;22.31;99605.59;1889855;76;22057;-68
2021/06/04 07:14:34;;;;;;;7.87;1.98;;;;;;;31.56;22.28;99598.92;1889933;76;22069;-71
2021/06/04 07:17:08;;;;;;;6.17;1.80;;;;;;;31.20;22.03;99605.67;1870573;76;22091;-70
2021/06/04 07:19:45;;;;;;;5.95;2.00;;;;;;;29.86;22.74;99600.45;1854612;76;27856;-71
2021/06/04 07:22:33;;;;;;;9.35;1.82;;;;;;;29.50;23.39;99603.42;1760307;81;21133;-72
2021/06/04 07:25:14;;;;;;;8.98;1.75;;;;;;;29.65;24.02;99597.73;1870536;76;22466;-70
2021/06/04 07:27:50;;;;;;;5.37;2.15;;;;;;;28.68;24.66;99592.89;1870389;76;22046;-69
2021/06/04 07:30:36;;;;;;;7.15;2.05;;;;;;;27.77;25.76;99578.92;1869655;76;22245;-71
2021/06/04 07:33:19;;;;;;;7.17;1.70;;;;;;;26.50;26.37;99585.73;1870564;76;22220;-66
2021/06/04 07:35:57;;;;;;;10.28;2.12;;;;;;;25.59;26.14;99575.47;1870401;76;22082;-67
2021/06/04 07:38:32;;;;;;;4.80;1.80;;;;;;;25.66;26.45;99585.34;1870570;76;22074;-73
2021/06/04 07:41:19;;;;;;;9.25;2.00;;;;;;;26.52;25.54;99591.85;1827533;77;21122;-70
2021/06/04 07:43:55;;;;;;;8.88;2.25;;;;;;;27.32;24.68;99582.88;1889848;76;22074;-72
2021/06/04 07:46:30;;;;;;;11.40;2.67;;;;;;;27.62;24.83;99579.68;1889848;76;22586;-73
2021/06/04 07:49:04;;;;;;;6.20;1.70;;;;;;;27.89;24.48;99583.65;1870639;76;22091;-69
2021/06/04 07:51:45;;;;;;;15.43;2.37;;;;;;;28.08;24.25;99580.05;1870576;76;22098;-66
2021/06/04 07:54:33;;;;;;;5.10;1.87;;;;;;;27.81;24.34;99575.22;1889823;76;22313;-72
2021/06/04 07:57:13;;;;;;;8.85;1.90;;;;;;;26.50;24.99;99587.52;1869944;76;22278;-69
2021/06/04 07:59:48;;;;;;;5.53;1.90;;;;;;;25.97;25.91;99580.98;1870749;76;22108;-72
2021/06/04 08:02:22;;;;;;;6.72;2.45;;;;;;;25.97;26.23;99584.95;1889865;76;22337;-66
2021/06/04 08:05:17;;;;;;;4.65;1.87;;;;;;;26.14;25.77;99585.09;1868719;76;22207;-72
2021/06/04 08:07:53;;;;;;;5.12;1.87;;;;;;;26.55;26.03;99571.86;1870496;76;22546;-66
2021/06/04 08:10:30;;;;;;;8.78;1.87;;;;;;;27.38;25.36;99566.70;1889833;76;22061;-71
2021/06/04 08:13:06;;;;;;;7.55;2.20;;;;;;;27.57;24.52;99573.27;1856692;76;27968;-66
2021/06/04 08:15:52;;;;;;;5.65;1.77;;;;;;;26.76;25.77;99573.98;1856943;76;22094;-66
2021/06/04 08:18:36;;;;;;;6.33;2.05;;;;;;;25.61;27.08;99568.34;1856568;76;22158;-66
2021/06/04 08:21:23;;;;;;;8.60;2.08;;;;;;;24.72;28.04;99567.84;1870555;76;22125;-69
2021/06/04 08:23:59;;;;;;;10.50;2.30;;;;;;;24.04;29.01;99563.66;1869527;76;22171;-66
2021/06/04 08:26:34;;;;;;;7.15;1.98;;;;;;;23.90;28.95;99565.03;1869973;76;22195;-67
2021/06/04 08:29:11;;;;;;;4.28;1.75;;;;;;;23.97;28.81;99558.64;1889891;76;22220;-66
2021/06/04 08:31:45;;;;;;;5.70;2.00;;;;;;;24.41;28.78;99564.97;1853742;76;27983;-67
2021/06/04 08:34:20;;;;;;;8.75;2.10;;;;;;;25.08;27.79;99564.70;1870358;76;22153;-69
2021/06/04 08:36:56;;;;;;;9.80;2.00;;;;;;;25.89;27.32;99572.52;1870670;76;22174;-67
2021/06/04 08:39:32;;;;;;;5.95;1.70;;;;;;;26.68;25.89;99567.33;1870558;76;20097;-69
2021/06/04 08:42:27;;;;;;;4.90;1.95;;;;;;;27.08;25.85;99564.17;1870575;76;22583;-64
2021/06/04 08:45:42;;;;;;;6.85;1.87;;;;;;;27.79;25.02;99578.38;1854714;76;27902;-68
2021/06/04 08:48:46;;;;;;;7.50;2.15;;;;;;;28.51;24.75;99565.42;1870382;76;22216;-65
2021/06/04 08:51:30;;;;;;;5.22;2.30;;;;;;;28.14;24.38;99566.48;1870402;76;22310;-68
2021/06/04 08:54:36;;;;;;;10.43;1.90;;;;;;;27.09;25.47;99571.17;1870481;76;22140;-65
2021/06/04 08:57:44;;;;;;;9.10;2.15;;;;;;;27.22;25.29;99565.70;1854728;76;27892;-67
2021/06/04 09:00:37;;;;;;;7.42;1.98;;;;;;;27.81;25.33;99567.27;1870578;76;22299;-68
2021/06/04 09:03:23;;;;;;;5.75;1.90;;;;;;;27.65;24.59;99556.52;1870326;76;22050;-67
2021/06/04 09:06:02;;;;;;;8.48;2.15;;;;;;;27.33;24.93;99570.52;1889877;76;22284;-69
2021/06/04 09:08:49;;;;;;;3.12;1.40;;;;;;;26.96;25.32;99566.92;1792034;80;21126;-65
2021/06/04 09:11:33;;;;;;;9.65;2.37;;;;;;;26.38;25.03;99561.13;1870555;76;22302;-69
2021/06/04 09:14:09;;;;;;;7.80;2.20;;;;;;;25.66;25.14;99561.55;1889859;76;22277;-66
2021/06/04 09:17:02;;;;;;;6.87;1.95;;;;;;;24.71;26.47;99556.89;1889881;76;22145;-69
2021/06/04 09:20:16;;;;;;;13.80;2.50;;;;;;;24.13;27.19;99555.87;1866162;76;22238;-66
2021/06/04 09:23:01;;;;;;;7.03;2.00;;;;;;;23.77;28.64;99552.27;1870290;76;22144;-66
2021/06/04 09:25:38;;;;;;;8.95;2.25;;;;;;;23.47;29.08;99547.52;1889899;76;22135;-66
2021/06/04 09:28:25;;;;;;;5.20;1.87;;;;;;;23.21;29.08;99544.41;1889919;76;22163;-65
2021/06/04 09:31:27;;;;;;;5.97;2.35;;;;;;;22.91;29.25;99548.34;1870424;76;22160;-68
2021/06/04 09:37:15;;;;;;;8.03;2.00;;;;;;;22.54;30.46;99544.18;1870298;76;22135;-69
2021/06/04 09:39:55;;;;;;;6.58;1.80;;;;;;;22.47;30.41;99528.16;1870576;76;22551;-68
2021/06/04 09:42:31;;;;;;;6.50;1.80;;;;;;;22.23;30.53;99542.84;1889802;76;22187;-69
2021/06/04 09:45:15;;;;;;;8.78;2.12;;;;;;;22.13;30.96;99537.39;1889879;76;22192;-66
2021/06/04 09:48:16;;;;;;;5.65;2.30;;;;;;;22.17;31.00;99541.67;1861281;77;21162;-67
2021/06/04 09:50:50;;;;;;;4.42;1.92;;;;;;;22.27;30.90;99543.17;1870564;76;22179;-68
2021/06/04 09:53:25;;;;;;;6.60;2.00;;;;;;;22.29;30.55;99541.83;1870509;76;22548;-70
2021/06/04 09:56:21;;;;;;;9.90;2.12;;;;;;;22.29;30.46;99538.75;1870577;76;22112;-65
2021/06/04 09:59:04;;;;;;;6.33;2.20;;;;;;;22.22;30.81;99534.55;1870405;76;20101;-63
2021/06/04 10:01:51;;;;;;;11.68;2.60;;;;;;;22.17;31.00;99525.89;1870407;76;22105;-70
2021/06/04 10:04:31;;;;;;;8.23;2.20;;;;;;;22.13;31.49;99525.56;1870417;76;22110;-68
2021/06/04 10:07:21;;;;;;;13.65;2.30;;;;;;;22.02;31.05;99527.63;1827845;77;21285;-66
2021/06/04 10:09:58;;;;;;;10.48;2.10;;;;;;;21.89;31.58;99534.98;1870407;76;22164;-71
2021/06/04 10:12:41;;;;;;;6.58;2.35;;;;;;;21.85;31.74;99528.95;1889842;76;22599;-66
2021/06/04 10:15:37;;;;;;;10.20;2.10;;;;;;;21.99;32.45;99529.89;1870628;76;22255;-64
2021/06/04 10:18:38;;;;;;;6.50;2.00;;;;;;;22.18;32.11;99525.44;1890005;76;22131;-70
2021/06/04 10:21:31;;;;;;;9.58;1.80;;;;;;;22.34;31.99;99529.42;1890150;76;22148;-67
2021/06/04 10:24:29;;;;;;;9.65;2.40;;;;;;;22.45;31.08;99534.37;1889853;76;22171;-68
2021/06/04 10:27:08;;;;;;;4.20;1.95;;;;;;;22.40;31.56;99533.64;1870585;76;22144;-66
2021/06/04 10:29:58;;;;;;;9.10;2.02;;;;;;;22.36;31.38;99531.98;1889848;76;22124;-66
2021/06/04 10:32:38;;;;;;;6.08;1.95;;;;;;;22.41;31.24;99527.45;1889966;76;22148;-65
2021/06/04 10:35:49;;;;;;;7.47;2.35;;;;;;;22.33;30.44;99531.16;1861121;77;21154;-66
2021/06/04 10:38:44;;;;;;;3.98;1.70;;;;;;;22.26;31.01;99526.11;1870566;76;22132;-68
2021/06/04 10:41:30;;;;;;;5.40;1.92;;;;;;;22.11;30.54;99526.08;1870542;76;22613;-67
2021/06/04 10:44:19;;;;;;;11.28;2.30;;;;;;;22.00;31.02;99526.80;1849338;76;28248;-64
2021/06/04 10:47:28;;;;;;;4.72;1.87;;;;;;;22.07;31.32;99519.17;1847487;76;22208;-69
2021/06/04 10:50:20;;;;;;;6.47;2.05;;;;;;;22.00;31.20;99517.59;1870528;76;22152;-67
2021/06/04 10:53:20;;;;;;;11.25;1.98;;;;;;;22.01;31.38;99509.69;1870417;76;22591;-66
2021/06/04 10:56:28;;;;;;;3.58;1.70;;;;;;;22.14;31.62;99519.88;1854909;75;22575;-67
2021/06/04 10:59:20;;;;;;;7.20;2.22;;;;;;;22.24;31.09;99531.44;1870315;76;22588;-65
2021/06/04 11:02:01;;;;;;;5.78;1.95;;;;;;;22.28;31.89;99527.80;1869766;76;22157;-71
2021/06/04 11:05:17;;;;;;;8.30;2.05;;;;;;;22.29;31.50;99527.38;1827752;77;21166;-67
2021/06/04 11:08:09;;;;;;;6.65;2.27;;;;;;;22.42;30.97;99526.57;1867717;76;22171;-66
2021/06/04 11:11:07;;;;;;;7.42;2.17;;;;;;;22.43;30.71;99523.02;1863352;76;22175;-61
2021/06/04 11:14:07;;;;;;;6.10;2.10;;;;;;;22.50;30.93;99525.89;1851389;76;22176;-66
2021/06/04 11:17:00;;;;;;;8.23;1.92;;;;;;;22.63;31.30;99504.03;1852110;76;22624;-66
2021/06/04 11:19:40;;;;;;;9.13;1.98;;;;;;;22.71;30.94;99508.15;1855590;76;22534;-66
2021/06/04 11:22:26;;;;;;;7.50;2.10;;;;;;;22.72;30.63;99507.26;1870542;76;22145;-67
2021/06/04 11:25:52;;;;;;;5.28;2.05;;;;;;;22.73;29.98;99506.34;1889786;76;22159;-66
2021/06/04 11:28:50;;;;;;;7.00;2.20;;;;;;;22.73;29.11;99507.66;1889815;76;22116;-67
2021/06/04 11:32:13;;;;;;;4.28;1.70;;;;;;;22.79;29.17;99514.95;1870782;76;22101;-66
2021/06/04 11:35:09;;;;;;;10.58;2.33;;;;;;;22.81;29.05;99515.31;1889762;76;22151;-65
2021/06/04 11:38:22;;;;;;;8.80;2.17;;;;;;;22.86;29.03;99516.50;1870253;76;22156;-68
2021/06/04 11:41:28;;;;;;;6.12;1.60;;;;;;;22.99;28.11;99511.29;1870052;76;22220;-63
2021/06/04 11:44:41;;;;;;;7.40;1.50;;;;;;;23.08;28.74;99507.06;1870448;76;22140;-67
2021/06/04 11:47:32;;;;;;;7.10;1.60;;;;;;;23.18;29.08;99507.18;1889970;76;22601;-67
2021/06/04 11:50:13;;;;;;;6.65;2.10;;;;;;;23.26;29.06;99500.81;1870397;76;22188;-66
2021/06/04 11:53:39;;;;;;;8.33;1.80;;;;;;;23.33;28.34;99514.16;1827762;77;21150;-70
2021/06/04 11:56:45;;;;;;;4.83;1.70;;;;;;;23.47;28.09;99515.91;1870515;76;22157;-68
2021/06/04 11:59:51;;;;;;;6.62;1.80;;;;;;;23.37;28.33;99507.89;1854685;76;28309;-62
2021/06/04 12:02:40;;;;;;;7.58;1.92;;;;;;;23.40;28.53;99513.06;1858773;76;22223;-66
2021/06/04 12:05:23;;;;;;;5.85;2.00;;;;;;;23.37;28.58;99502.62;1870509;76;22583;-66
2021/06/04 12:08:28;;;;;;;8.05;2.15;;;;;;;23.27;28.70;99505.16;1870534;76;22128;-65
2021/06/04 12:11:22;;;;;;;3.92;1.42;;;;;;;23.44;28.63;99506.79;1870774;76;22132;-64
2021/06/04 12:14:08;;;;;;;7.67;1.98;;;;;;;23.40;27.05;99506.47;1869626;76;22168;-64
2021/06/04 12:16:43;;;;;;;5.65;1.90;;;;;;;23.18;27.74;99507.64;1889837;76;22104;-70
2021/06/04 12:19:37;;;;;;;6.22;1.55;;;;;;;23.07;27.81;99504.47;1870543;76;22543;-66
2021/06/04 12:22:39;;;;;;;5.35;1.77;;;;;;;23.06;27.23;99503.61;1870452;76;22108;-66
2021/06/04 12:25:51;;;;;;;6.53;1.95;;;;;;;23.18;27.47;99509.81;1870456;76;22155;-68
2021/06/04 12:28:39;;;;;;;5.50;1.65;;;;;;;23.29;28.07;99515.19;1870651;76;22112;-68
2021/06/04 12:32:02;;;;;;;5.50;1.72;;;;;;;23.34;28.51;99509.32;1870523;76;22163;-65
2021/06/04 12:34:50;;;;;;;6.17;1.55;;;;;;;23.73;28.18;99507.14;1889770;76;22179;-63
2021/06/04 12:37:31;;;;;;;4.15;1.47;;;;;;;23.92;27.57;99502.58;1844604;76;22195;-64
2021/06/04 12:40:27;;;;;;;8.63;1.72;;;;;;;23.87;28.19;99508.47;1870505;76;22177;-64
2021/06/04 12:43:30;;;;;;;9.15;2.05;;;;;;;23.88;28.06;99501.81;1870613;76;22143;-67
2021/06/04 12:46:24;;;;;;;7.33;2.00;;;;;;;23.85;28.59;99497.97;1889907;76;22239;-66
2021/06/04 12:49:08;;;;;;;3.70;1.52;;;;;;;23.88;27.91;99503.13;1870574;76;22133;-68
2021/06/04 12:51:46;;;;;;;5.90;1.60;;;;;;;23.79;27.95;99496.88;1870692;76;22143;-65
2021/06/04 12:54:28;;;;;;;4.22;1.92;;;;;;;23.81;28.16;99495.02;1870529;76;22270;-66
2021/06/04 12:57:26;;;;;;;4.50;1.47;;;;;;;23.85;28.26;99503.23;1827766;77;21123;-64
2021/06/04 13:00:30;;;;;;;15.23;3.12;;;;;;;23.98;28.11;99491.34;1869739;76;22149;-68